El Tigre — WDI2461 — position and weather

sailwx.info

Track history (hours):
 
Tides and Currents Weather Stations Pressure Air Temp Water Temp Dewpoint Dewpoint Depression Visibility Wind Speed Wind Dir Waves Ship Positions

El Tigre

Owner: Hunt, Randy, Laguna beach, CA. More information available from US FCC via Universal Licensing System and Coast Guard Vessel Documentation Center.

Last reported at 2018-Aug-13 23:27 UTC. Time now 2018-Aug-16 08:45 UTC.
Position N 45°10' W 124°14'.

; draft 2 m.

MMSI: 367678390.

Date/timePositionNaut miles runAvg speedWind from/ knotsBaromVisibWave heightAir tempDewpointWater temp
2018-Aug-13 23:27N 45°10' W 124°14'510.6
2018-Aug-13 22:58N 45°15' W 124°14'510.5
2018-Aug-13 22:30N 45°20' W 124°14'510.6
2018-Aug-13 22:00N 45°26' W 124°14'510.4
2018-Aug-13 21:30N 45°31' W 124°14'510.4
2018-Aug-13 21:00N 45°36' W 124°15'510.2
2018-Aug-13 20:30N 45°41' W 124°15'510.0
2018-Aug-13 20:00N 45°46' W 124°15'5 9.8
2018-Aug-13 19:30N 45°51' W 124°15'5 9.8
2018-Aug-13 19:00N 45°56' W 124°16'510.2
2018-Aug-13 18:30N 46°01' W 124°17'5 9.9
2018-Aug-13 18:00N 46°06' W 124°18'5 9.9
2018-Aug-13 17:30N 46°11' W 124°18'510.1
2018-Aug-13 17:00N 46°16' W 124°17'510.4
2018-Aug-13 16:31N 46°21' W 124°17'510.5
2018-Aug-13 16:00N 46°26' W 124°17'510.3
2018-Aug-13 15:30N 46°31' W 124°18'510.0
2018-Aug-13 15:00N 46°36' W 124°18'510.1
2018-Aug-13 14:30N 46°41' W 124°16'510.0
2018-Aug-13 14:00N 46°46' W 124°15'5 9.8
2018-Aug-13 13:30N 46°51' W 124°13'6 0.4
2018-Aug-13 00:00N 46°55' W 124°06'3 5.5
2018-Aug-12 23:31N 46°55' W 124°10'4 8.7
2018-Aug-12 23:00N 46°58' W 124°15'5 9.7
2018-Aug-12 22:30N 47°02' W 124°19'5 9.5
2018-Aug-12 22:00N 47°06' W 124°22'5 9.1
2018-Aug-12 21:30N 47°11' W 124°24'63 9.7
2018-Aug-12 15:02N 48°11' W 124°49'0 9.7
2018-Aug-12 15:00N 48°12' W 124°49'5 9.8
2018-Aug-12 14:30N 48°17' W 124°48'6 9.9
2018-Aug-12 13:54N 48°22' W 124°47'3 7.9
2018-Aug-12 13:29N 48°25' W 124°43'511.6
2018-Aug-12 13:01N 48°23' W 124°35'1 3.0
2018-Aug-12 12:30N 48°22' W 124°37'0 0.0
2018-Aug-12 12:00N 48°22' W 124°37'0 0.0
2018-Aug-12 11:30N 48°22' W 124°37'0 0.0
2018-Aug-12 11:00N 48°22' W 124°37'0 0.0
2018-Aug-12 10:30N 48°22' W 124°37'0 0.0
2018-Aug-12 10:00N 48°22' W 124°37'0 0.0
2018-Aug-12 09:30N 48°22' W 124°37'0 0.0
2018-Aug-12 09:00N 48°22' W 124°37'0 0.0
2018-Aug-12 08:30N 48°22' W 124°37'0 0.0
2018-Aug-12 08:00N 48°22' W 124°37'0 0.0
2018-Aug-12 07:30N 48°22' W 124°37'0 0.0
2018-Aug-12 07:00N 48°22' W 124°37'0 0.0
2018-Aug-12 06:30N 48°22' W 124°37'0 0.0
2018-Aug-12 06:00N 48°22' W 124°37'0 0.0
2018-Aug-12 05:30N 48°22' W 124°37'0 0.0
2018-Aug-12 05:00N 48°22' W 124°37'0 0.0
2018-Aug-12 04:30N 48°22' W 124°37'0 0.0
2018-Aug-12 04:00N 48°22' W 124°37'0 0.0
2018-Aug-12 03:30N 48°22' W 124°37'0 0.0
2018-Aug-12 03:00N 48°22' W 124°37'0 0.0
2018-Aug-12 02:30N 48°22' W 124°37'0 0.0
2018-Aug-12 02:00N 48°22' W 124°37'0 0.0
2018-Aug-12 01:30N 48°22' W 124°37'0 0.0
2018-Aug-12 01:00N 48°22' W 124°37'0 0.0
2018-Aug-12 00:30N 48°22' W 124°37'0 0.0
2018-Aug-12 00:00N 48°22' W 124°37'0 0.0
2018-Aug-11 23:30N 48°22' W 124°37'0 0.1
2018-Aug-11 23:00N 48°22' W 124°37'3 6.1
2018-Aug-11 22:30N 48°22' W 124°32'4 8.7
2018-Aug-11 22:00N 48°21' W 124°26'4 8.4
2018-Aug-11 21:30N 48°19' W 124°20'4 8.3
2018-Aug-11 20:59N 48°18' W 124°14'6 8.4
2018-Aug-11 20:17N 48°16' W 124°06'45 7.0
2018-Aug-11 13:49N 48°25' W 122°59'411.6
2018-Aug-11 13:30N 48°28' W 122°57'611.2
2018-Aug-11 13:01N 48°33' W 122°59'0 0.9
2018-Aug-11 12:30N 48°34' W 122°59'0 0.0
2018-Aug-11 12:01N 48°34' W 122°59'0 0.0
2018-Aug-11 11:31N 48°34' W 122°59'0 0.0
2018-Aug-11 11:00N 48°34' W 122°59'0 0.0
2018-Aug-11 10:30N 48°34' W 122°59'0 0.0
2018-Aug-11 10:00N 48°34' W 122°59'0 0.0
2018-Aug-11 09:30N 48°34' W 122°59'0 0.0
2018-Aug-11 09:00N 48°34' W 122°59'0 0.0
2018-Aug-11 08:30N 48°34' W 122°59'0 0.0
2018-Aug-11 08:00N 48°34' W 122°59'0 0.0
2018-Aug-11 07:30N 48°34' W 122°59'0 0.0
2018-Aug-11 07:00N 48°34' W 122°59'0 0.0
2018-Aug-11 06:30N 48°34' W 122°59'0 0.0
2018-Aug-11 06:00N 48°34' W 122°59'0 0.0
2018-Aug-11 05:31N 48°34' W 122°59'0 0.0
2018-Aug-11 05:01N 48°34' W 122°59'0 0.0
2018-Aug-11 04:30N 48°34' W 122°59'0 0.1
2018-Aug-11 04:01N 48°34' W 122°59'0 0.0
2018-Aug-11 03:30N 48°34' W 122°59'0 0.0
2018-Aug-11 03:00N 48°34' W 122°59'2 3.2
2018-Aug-11 02:30N 48°33' W 123°01'0 0.3
2018-Aug-11 02:00N 48°33' W 123°01'0 0.0
2018-Aug-11 01:30N 48°33' W 123°01'0 0.0
2018-Aug-11 01:00N 48°33' W 123°01'0 0.1
2018-Aug-11 00:31N 48°33' W 123°01'0 0.0
2018-Aug-11 00:00N 48°33' W 123°01'0 0.1
2018-Aug-10 23:30N 48°33' W 123°01'0 0.1
2018-Aug-10 23:01N 48°33' W 123°01'0 0.0
2018-Aug-10 22:31N 48°33' W 123°01'0 0.0
2018-Aug-10 22:00N 48°33' W 123°01'0 0.0
2018-Aug-10 21:30N 48°33' W 123°01'0 0.0
2018-Aug-10 21:01N 48°33' W 123°01'0 0.1
2018-Aug-10 20:31N 48°33' W 123°01'0 0.2
2018-Aug-10 20:01N 48°33' W 123°01'0 0.4
2018-Aug-10 19:30N 48°32' W 123°01'2 3.9
2018-Aug-10 19:00N 48°34' W 123°01'5 9.9
2018-Aug-10 18:30N 48°38' W 123°07'4 7.9
2018-Aug-10 18:00N 48°38' W 123°13'510.7
2018-Aug-10 17:31N 48°39' W 123°21'2 3.9
2018-Aug-10 17:00N 48°39' W 123°24'0 0.1
2018-Aug-10 16:31N 48°39' W 123°24'0 0.1
2018-Aug-10 16:00N 48°39' W 123°24'0 0.1
2018-Aug-10 15:30N 48°39' W 123°24'0 0.1
2018-Aug-10 15:00N 48°39' W 123°24'0 0.0
2018-Aug-10 14:30N 48°39' W 123°24'0 0.0
2018-Aug-10 14:00N 48°39' W 123°24'0 0.0
2018-Aug-10 13:30N 48°39' W 123°24'0 0.0
2018-Aug-10 13:00N 48°39' W 123°24'0 0.0
2018-Aug-10 12:30N 48°39' W 123°24'0 0.0
2018-Aug-10 12:00N 48°39' W 123°24'0 0.0
2018-Aug-10 11:30N 48°39' W 123°24'0 0.0
2018-Aug-10 11:00N 48°39' W 123°24'0 0.0
2018-Aug-10 10:30N 48°39' W 123°24'0 0.1
2018-Aug-10 10:00N 48°39' W 123°24'0 0.1
2018-Aug-10 09:29N 48°39' W 123°24'0 0.0
2018-Aug-10 08:57N 48°39' W 123°24'0 0.0
2018-Aug-10 08:29N 48°39' W 123°24'0 0.0
2018-Aug-10 07:59N 48°39' W 123°24'0 0.1
2018-Aug-10 07:31N 48°39' W 123°24'0 0.1
2018-Aug-10 07:01N 48°39' W 123°24'0 0.0
2018-Aug-10 06:30N 48°39' W 123°24'0 0.0
2018-Aug-10 06:00N 48°39' W 123°24'0 0.0
2018-Aug-10 05:30N 48°39' W 123°24'0 0.0
2018-Aug-10 05:00N 48°39' W 123°24'0 0.0
2018-Aug-10 04:31N 48°39' W 123°24'0 0.0
2018-Aug-10 04:01N 48°39' W 123°24'0 0.1
2018-Aug-10 03:31N 48°39' W 123°24'0 0.1
2018-Aug-10 03:00N 48°39' W 123°24'0 0.0
2018-Aug-10 02:30N 48°39' W 123°24'0 0.0
2018-Aug-10 02:00N 48°39' W 123°24'0 0.0
2018-Aug-10 01:30N 48°39' W 123°24'0 0.0
2018-Aug-10 01:00N 48°39' W 123°24'0 0.0
2018-Aug-10 00:30N 48°39' W 123°24'0 0.0
2018-Aug-10 00:01N 48°39' W 123°24'0 0.0
2018-Aug-09 23:30N 48°39' W 123°24'0 0.1
2018-Aug-09 23:00N 48°39' W 123°24'0 0.1
2018-Aug-09 22:31N 48°39' W 123°24'0 0.0
2018-Aug-09 22:01N 48°39' W 123°24'0 0.1
2018-Aug-09 21:31N 48°39' W 123°24'0 0.1
2018-Aug-09 21:00N 48°39' W 123°24'0 0.0
2018-Aug-09 20:31N 48°39' W 123°24'0 0.0
2018-Aug-09 20:00N 48°39' W 123°24'0 0.1
2018-Aug-09 19:30N 48°39' W 123°24'0 0.1
2018-Aug-09 19:00N 48°39' W 123°24'0 0.0
2018-Aug-09 18:30N 48°39' W 123°24'0 0.0
2018-Aug-09 18:00N 48°39' W 123°24'0 0.0
2018-Aug-09 17:30N 48°39' W 123°24'0 0.0
2018-Aug-09 17:00N 48°39' W 123°24'0 0.1
2018-Aug-09 16:30N 48°39' W 123°24'0 0.1
2018-Aug-09 16:00N 48°39' W 123°24'0 0.1
2018-Aug-09 15:30N 48°39' W 123°24'0 0.1
2018-Aug-09 15:00N 48°39' W 123°24'0 0.0
2018-Aug-09 14:30N 48°39' W 123°24'0 0.0
2018-Aug-09 13:27N 48°39' W 123°24'0 0.0
2018-Aug-09 13:00N 48°39' W 123°24'0 0.0
2018-Aug-09 12:01N 48°39' W 123°24'0 0.0
2018-Aug-09 12:00N 48°39' W 123°24'0 0.0
2018-Aug-09 11:30N 48°39' W 123°24'0 0.0
2018-Aug-09 11:00N 48°39' W 123°24'0 0.0
2018-Aug-09 10:30N 48°39' W 123°24'0 0.0
2018-Aug-09 10:00N 48°39' W 123°24'0 0.0
2018-Aug-09 09:27N 48°39' W 123°24'0 0.0
2018-Aug-09 09:00N 48°39' W 123°24'0 0.0
2018-Aug-09 08:30N 48°39' W 123°24'0 0.0
2018-Aug-09 08:00N 48°39' W 123°24'0 0.0
2018-Aug-09 07:30N 48°39' W 123°24'0 0.0
2018-Aug-09 07:01N 48°39' W 123°24'0 0.0
2018-Aug-09 06:31N 48°39' W 123°24'0 0.0
2018-Aug-09 06:00N 48°39' W 123°24'0 0.0
2018-Aug-09 05:30N 48°39' W 123°24'0 0.0
2018-Aug-09 05:00N 48°39' W 123°24'0 0.0
2018-Aug-09 04:30N 48°39' W 123°24'0 0.0
2018-Aug-09 04:00N 48°39' W 123°24'0 0.0
2018-Aug-09 03:31N 48°39' W 123°24'0 0.0
2018-Aug-09 03:01N 48°39' W 123°24'0 0.0
2018-Aug-09 02:30N 48°39' W 123°24'0 0.0
2018-Aug-09 02:00N 48°39' W 123°24'0 0.0
2018-Aug-09 01:30N 48°39' W 123°24'0 0.0
2018-Aug-09 01:00N 48°39' W 123°24'0 0.0
2018-Aug-09 00:30N 48°39' W 123°24'0 0.0
2018-Aug-09 00:00N 48°39' W 123°24'0 0.0
2018-Aug-08 23:30N 48°39' W 123°24'0 0.1
2018-Aug-08 23:01N 48°39' W 123°24'0 0.1
2018-Aug-08 22:30N 48°39' W 123°24'0 0.0
2018-Aug-08 22:00N 48°39' W 123°24'0 0.0
2018-Aug-08 21:30N 48°39' W 123°24'0 0.0
2018-Aug-08 21:00N 48°39' W 123°24'0 0.0
2018-Aug-08 20:30N 48°39' W 123°24'0 0.0
2018-Aug-08 20:00N 48°39' W 123°24'0 0.0
2018-Aug-08 19:30N 48°39' W 123°24'0 0.0
2018-Aug-08 19:00N 48°39' W 123°24'0 0.0
2018-Aug-08 18:30N 48°39' W 123°24'0 0.0
2018-Aug-08 18:00N 48°39' W 123°24'0 0.0
2018-Aug-08 17:30N 48°39' W 123°24'0 0.0
2018-Aug-08 17:00N 48°39' W 123°24'0 0.1
2018-Aug-08 16:30N 48°39' W 123°24'0 0.1
2018-Aug-08 16:00N 48°39' W 123°24'0 0.0
2018-Aug-08 15:30N 48°39' W 123°24'0 0.1
2018-Aug-08 15:00N 48°39' W 123°24'0 0.1
2018-Aug-08 14:30N 48°39' W 123°24'0 0.0
2018-Aug-08 14:00N 48°39' W 123°24'0 0.0
2018-Aug-08 13:30N 48°39' W 123°24'0 0.0
2018-Aug-08 13:00N 48°39' W 123°24'0 0.0
2018-Aug-08 12:30N 48°39' W 123°24'0 0.0
2018-Aug-08 12:00N 48°39' W 123°24'0 0.0
2018-Aug-08 11:30N 48°39' W 123°24'0 0.0
2018-Aug-08 11:00N 48°39' W 123°24'0 0.1
2018-Aug-08 10:30N 48°39' W 123°24'0 0.1
2018-Aug-08 10:00N 48°39' W 123°24'0 0.0
2018-Aug-08 09:30N 48°39' W 123°24'0 0.0
2018-Aug-08 09:00N 48°39' W 123°24'0 0.0
2018-Aug-08 08:30N 48°39' W 123°24'0 0.0
2018-Aug-08 08:00N 48°39' W 123°24'0 0.0
2018-Aug-08 07:30N 48°39' W 123°24'0 0.0
2018-Aug-08 07:00N 48°39' W 123°24'0 0.0
2018-Aug-08 06:30N 48°39' W 123°24'0 0.0
2018-Aug-08 06:00N 48°39' W 123°24'0 0.0
2018-Aug-08 05:30N 48°39' W 123°24'0 0.0
2018-Aug-08 05:00N 48°39' W 123°24'0 0.0
2018-Aug-08 04:30N 48°39' W 123°24'0 0.0
2018-Aug-08 04:00N 48°39' W 123°24'0 0.0
2018-Aug-08 03:30N 48°39' W 123°24'0 0.0
2018-Aug-08 03:00N 48°39' W 123°24'0 0.0
2018-Aug-08 02:30N 48°39' W 123°24'0 0.0
2018-Aug-08 02:00N 48°39' W 123°24'0 0.0
2018-Aug-08 01:31N 48°39' W 123°24'0 0.0
2018-Aug-08 01:01N 48°39' W 123°24'0 0.0
2018-Aug-08 00:31N 48°39' W 123°24'0 0.0
2018-Aug-08 00:00N 48°39' W 123°24'0 0.0
2018-Aug-07 23:31N 48°39' W 123°24'0 0.0
2018-Aug-07 23:00N 48°39' W 123°24'0 0.0
2018-Aug-07 22:31N 48°39' W 123°24'0 0.0
2018-Aug-07 22:00N 48°39' W 123°24'0 0.0
2018-Aug-07 21:30N 48°39' W 123°24'0 0.0
2018-Aug-07 21:00N 48°39' W 123°24'0 0.0
2018-Aug-07 20:31N 48°39' W 123°24'0 0.0
2018-Aug-07 20:00N 48°39' W 123°24'0 0.0
2018-Aug-07 19:30N 48°39' W 123°24'0 0.0
2018-Aug-07 19:00N 48°39' W 123°24'0 0.0
2018-Aug-07 18:31N 48°39' W 123°24'0 0.0
2018-Aug-07 18:01N 48°39' W 123°24'0 0.0
2018-Aug-07 17:31N 48°39' W 123°24'0 0.0
2018-Aug-07 17:00N 48°39' W 123°24'0 0.0
2018-Aug-07 16:31N 48°39' W 123°24'0 0.0
2018-Aug-07 16:01N 48°39' W 123°24'0 0.0
2018-Aug-07 15:30N 48°39' W 123°24'0 0.0
2018-Aug-07 15:00N 48°39' W 123°24'0 0.1
2018-Aug-07 14:31N 48°39' W 123°24'0 0.0
2018-Aug-07 14:00N 48°39' W 123°24'0 0.0
2018-Aug-07 13:31N 48°39' W 123°24'0 0.0
2018-Aug-07 13:00N 48°39' W 123°24'0 0.0
2018-Aug-07 12:30N 48°39' W 123°24'0 0.0
2018-Aug-07 12:01N 48°39' W 123°24'0 0.0
2018-Aug-07 11:31N 48°39' W 123°24'0 0.0
2018-Aug-07 11:01N 48°39' W 123°24'0 0.0
2018-Aug-07 10:30N 48°39' W 123°24'0 0.0
2018-Aug-07 10:00N 48°39' W 123°24'0 0.0
2018-Aug-07 09:31N 48°39' W 123°24'0 0.0
2018-Aug-07 09:00N 48°39' W 123°24'0 0.0
2018-Aug-07 08:30N 48°39' W 123°24'0 0.0
2018-Aug-07 08:00N 48°39' W 123°24'0 0.0
2018-Aug-07 07:30N 48°39' W 123°24'0 0.0
2018-Aug-07 07:01N 48°39' W 123°24'0 0.0
2018-Aug-07 06:30N 48°39' W 123°24'0 0.0
2018-Aug-07 06:01N 48°39' W 123°24'0 0.0
2018-Aug-07 05:31N 48°39' W 123°24'0 0.0
2018-Aug-07 05:00N 48°39' W 123°24'0 0.0
2018-Aug-07 04:31N 48°39' W 123°24'0 0.0
2018-Aug-07 04:01N 48°39' W 123°24'0 0.0
2018-Aug-07 03:30N 48°39' W 123°24'0 0.0
2018-Aug-07 03:01N 48°39' W 123°24'0 0.0
2018-Aug-07 02:31N 48°39' W 123°24'0 0.0
2018-Aug-07 02:01N 48°39' W 123°24'0 0.0
2018-Aug-07 01:30N 48°39' W 123°24'0 0.0
2018-Aug-07 01:01N 48°39' W 123°24'0 0.0
2018-Aug-07 00:30N 48°39' W 123°24'0 0.0
2018-Aug-07 00:01N 48°39' W 123°24'0 0.0
2018-Aug-06 23:31N 48°39' W 123°24'0 0.0
2018-Aug-06 23:00N 48°39' W 123°24'0 0.0
2018-Aug-06 22:31N 48°39' W 123°24'0 0.0
2018-Aug-06 22:00N 48°39' W 123°24'0 0.0
2018-Aug-06 21:30N 48°39' W 123°24'0 0.0
2018-Aug-06 20:59N 48°39' W 123°24'0 0.0
2018-Aug-06 20:30N 48°39' W 123°24'0 0.0
2018-Aug-06 20:00N 48°39' W 123°24'0 0.0
2018-Aug-06 19:29N 48°39' W 123°24'0 0.0
2018-Aug-06 19:00N 48°39' W 123°24'0 0.0
2018-Aug-06 18:30N 48°39' W 123°24'0 0.0
2018-Aug-06 17:59N 48°39' W 123°24'0 0.0
2018-Aug-06 17:29N 48°39' W 123°24'0 0.0
2018-Aug-06 17:00N 48°39' W 123°24'0 0.0
2018-Aug-06 16:31N 48°39' W 123°24'0 0.0
2018-Aug-06 16:00N 48°39' W 123°24'0 0.0
2018-Aug-06 15:30N 48°39' W 123°24'0 0.0
2018-Aug-06 15:01N 48°39' W 123°24'0 0.0
2018-Aug-06 14:30N 48°39' W 123°24'0 0.0
2018-Aug-06 14:00N 48°39' W 123°24'0 0.0
2018-Aug-06 13:31N 48°39' W 123°24'0 0.0
2018-Aug-06 13:00N 48°39' W 123°24'0 0.0
2018-Aug-06 12:30N 48°39' W 123°24'0 0.0
2018-Aug-06 12:01N 48°39' W 123°24'0 0.0
2018-Aug-06 11:31N 48°39' W 123°24'0 0.0
2018-Aug-06 11:01N 48°39' W 123°24'0 0.0
2018-Aug-06 10:30N 48°39' W 123°24'0 0.0
2018-Aug-06 10:00N 48°39' W 123°24'0 0.0
2018-Aug-06 09:30N 48°39' W 123°24'0 0.0
2018-Aug-06 09:00N 48°39' W 123°24'0 0.0
2018-Aug-06 08:30N 48°39' W 123°24'0 0.0
2018-Aug-06 08:01N 48°39' W 123°24'0 0.0
2018-Aug-06 07:30N 48°39' W 123°24'0 0.0
2018-Aug-06 07:01N 48°39' W 123°24'0 0.0
2018-Aug-06 06:30N 48°39' W 123°24'0 0.0
2018-Aug-06 06:00N 48°39' W 123°24'0 0.0
2018-Aug-06 05:30N 48°39' W 123°24'0 0.0
2018-Aug-06 05:00N 48°39' W 123°24'0 0.0
2018-Aug-06 04:30N 48°39' W 123°24'0 0.0
2018-Aug-06 04:00N 48°39' W 123°24'0 0.0
2018-Aug-06 03:30N 48°39' W 123°24'0 0.0
2018-Aug-06 03:00N 48°39' W 123°24'0 0.0
2018-Aug-06 02:31N 48°39' W 123°24'0 0.0
2018-Aug-06 02:01N 48°39' W 123°24'0 0.0
2018-Aug-06 01:31N 48°39' W 123°24'0 0.0
2018-Aug-06 01:01N 48°39' W 123°24'0 0.0
2018-Aug-06 00:30N 48°39' W 123°24'0 0.0
2018-Aug-06 00:01N 48°39' W 123°24'0 0.0
2018-Aug-05 23:31N 48°39' W 123°24'0 0.0
2018-Aug-05 23:01N 48°39' W 123°24'0 0.0
2018-Aug-05 22:30N 48°39' W 123°24'0 0.0
2018-Aug-05 22:00N 48°39' W 123°24'0 0.0
2018-Aug-05 21:30N 48°39' W 123°24'0 0.0
2018-Aug-05 21:00N 48°39' W 123°24'0 0.0
2018-Aug-05 20:30N 48°39' W 123°24'0 0.0
2018-Aug-05 20:00N 48°39' W 123°24'0 0.0
2018-Aug-05 19:31N 48°39' W 123°24'0 0.0
2018-Aug-05 19:00N 48°39' W 123°24'0 0.0
2018-Aug-05 18:30N 48°39' W 123°24'0 0.0
2018-Aug-05 18:01N 48°39' W 123°24'0 0.0
2018-Aug-05 17:30N 48°39' W 123°24'0 0.0
2018-Aug-05 17:00N 48°39' W 123°24'0 0.0
2018-Aug-05 16:30N 48°39' W 123°24'0 0.0
2018-Aug-05 16:00N 48°39' W 123°24'0 0.0
2018-Aug-05 15:30N 48°39' W 123°24'0 0.0
2018-Aug-05 15:01N 48°39' W 123°24'0 0.0
2018-Aug-05 14:30N 48°39' W 123°24'0 0.0
2018-Aug-05 13:31N 48°39' W 123°24'0 0.0
2018-Aug-05 13:00N 48°39' W 123°24'0 0.0
2018-Aug-05 12:30N 48°39' W 123°24'0 0.0
2018-Aug-05 12:00N 48°39' W 123°24'0 0.0
2018-Aug-05 11:31N 48°39' W 123°24'0 0.0
2018-Aug-05 11:01N 48°39' W 123°24'0 0.0
2018-Aug-05 10:31N 48°39' W 123°24'0 0.0
2018-Aug-05 10:01N 48°39' W 123°24'0 0.0
2018-Aug-05 09:30N 48°39' W 123°24'0 0.0
2018-Aug-05 09:00N 48°39' W 123°24'0 0.0
2018-Aug-05 08:30N 48°39' W 123°24'0 0.0
2018-Aug-05 08:00N 48°39' W 123°24'0 0.0
2018-Aug-05 07:30N 48°39' W 123°24'0 0.0
2018-Aug-05 07:00N 48°39' W 123°24'0 0.0
2018-Aug-05 06:31N 48°39' W 123°24'0 0.0
2018-Aug-05 06:01N 48°39' W 123°24'0 0.0
2018-Aug-05 05:30N 48°39' W 123°24'0 0.0
2018-Aug-05 05:01N 48°39' W 123°24'0 0.0
2018-Aug-05 04:31N 48°39' W 123°24'0 0.0
2018-Aug-05 04:01N 48°39' W 123°24'0 0.0
2018-Aug-05 03:30N 48°39' W 123°24'0 0.0
2018-Aug-05 03:01N 48°39' W 123°24'0 0.0
2018-Aug-05 02:31N 48°39' W 123°24'0 0.0
2018-Aug-05 02:00N 48°39' W 123°24'0 0.0
2018-Aug-05 01:30N 48°39' W 123°24'0 0.0
2018-Aug-05 01:01N 48°39' W 123°24'0 0.0
2018-Aug-05 00:31N 48°39' W 123°24'0 0.0
2018-Aug-05 00:00N 48°39' W 123°24'0 0.0
2018-Aug-04 23:30N 48°39' W 123°24'0 0.0
2018-Aug-04 23:01N 48°39' W 123°24'0 0.0
2018-Aug-04 22:31N 48°39' W 123°24'0 0.0
2018-Aug-04 22:00N 48°39' W 123°24'0 0.0
2018-Aug-04 21:30N 48°39' W 123°24'0 0.0
2018-Aug-04 21:00N 48°39' W 123°24'0 0.0
2018-Aug-04 20:30N 48°39' W 123°24'0 0.0
2018-Aug-04 20:00N 48°39' W 123°24'0 0.0
2018-Aug-04 19:30N 48°39' W 123°24'0 0.0
2018-Aug-04 19:00N 48°39' W 123°24'0 0.0
2018-Aug-04 18:30N 48°39' W 123°24'0 0.0
2018-Aug-04 18:00N 48°39' W 123°24'0 0.0
2018-Aug-04 17:30N 48°39' W 123°24'0 0.0
2018-Aug-04 17:00N 48°39' W 123°24'0 0.0
2018-Aug-04 16:30N 48°39' W 123°24'0 0.0
2018-Aug-04 16:00N 48°39' W 123°24'0 0.0
2018-Aug-04 15:30N 48°39' W 123°24'0 0.0
2018-Aug-04 15:00N 48°39' W 123°24'0 0.0
2018-Aug-04 14:30N 48°39' W 123°24'0 0.0
2018-Aug-04 14:00N 48°39' W 123°24'0 0.0
2018-Aug-04 13:30N 48°39' W 123°24'0 0.0
2018-Aug-04 13:00N 48°39' W 123°24'0 0.0
2018-Aug-04 12:31N 48°39' W 123°24'0 0.0
2018-Aug-04 12:00N 48°39' W 123°24'0 0.0
2018-Aug-04 11:30N 48°39' W 123°24'0 0.0
2018-Aug-04 11:00N 48°39' W 123°24'0 0.0
2018-Aug-04 10:30N 48°39' W 123°24'0 0.0
2018-Aug-04 10:01N 48°39' W 123°24'0 0.0
2018-Aug-04 09:30N 48°39' W 123°24'0 0.0
2018-Aug-04 09:01N 48°39' W 123°24'0 0.0
2018-Aug-04 08:30N 48°39' W 123°24'0 0.0
2018-Aug-04 08:00N 48°39' W 123°24'0 0.0
2018-Aug-04 07:31N 48°39' W 123°24'0 0.0
2018-Aug-04 07:00N 48°39' W 123°24'0 0.0
2018-Aug-04 06:30N 48°39' W 123°24'0 0.0
2018-Aug-04 06:01N 48°39' W 123°24'0 0.0
2018-Aug-04 05:30N 48°39' W 123°24'0 0.0
2018-Aug-04 05:01N 48°39' W 123°24'0 0.0
2018-Aug-04 04:31N 48°39' W 123°24'0 0.0
2018-Aug-04 04:00N 48°39' W 123°24'0 0.0
2018-Aug-04 03:30N 48°39' W 123°24'0 0.0
2018-Aug-04 03:00N 48°39' W 123°24'0 0.0
2018-Aug-04 02:31N 48°39' W 123°24'0 0.0
2018-Aug-04 02:00N 48°39' W 123°24'0 0.0
2018-Aug-04 01:30N 48°39' W 123°24'0 0.0
2018-Aug-04 01:00N 48°39' W 123°24'0 0.0
2018-Aug-04 00:31N 48°39' W 123°24'0 0.0
2018-Aug-04 00:00N 48°39' W 123°24'0 0.0
2018-Aug-03 23:31N 48°39' W 123°24'  
Track history (hours):
 
Tides and Currents Weather Stations Pressure Air Temp Water Temp Dewpoint Dewpoint Depression Visibility Wind Speed Wind Dir Waves Ship Positions

El Tigre

Owner: Hunt, Randy, Laguna beach, CA. More information available from US FCC via Universal Licensing System and Coast Guard Vessel Documentation Center.

Last reported at 2018-Aug-13 23:27 UTC. Time now 2018-Aug-16 08:45 UTC.
Position N 45°10' W 124°14'.

; draft 2 m.

MMSI: 367678390.

Date/timePositionNaut miles runAvg speedWind from/ knotsBaromVisibWave heightAir tempDewpointWater temp
2018-Aug-13 23:27N 45°10' W 124°14'510.6
2018-Aug-13 22:58N 45°15' W 124°14'510.5
2018-Aug-13 22:30N 45°20' W 124°14'510.6
2018-Aug-13 22:00N 45°26' W 124°14'510.4
2018-Aug-13 21:30N 45°31' W 124°14'510.4
2018-Aug-13 21:00N 45°36' W 124°15'510.2
2018-Aug-13 20:30N 45°41' W 124°15'510.0
2018-Aug-13 20:00N 45°46' W 124°15'5 9.8
2018-Aug-13 19:30N 45°51' W 124°15'5 9.8
2018-Aug-13 19:00N 45°56' W 124°16'510.2
2018-Aug-13 18:30N 46°01' W 124°17'5 9.9
2018-Aug-13 18:00N 46°06' W 124°18'5 9.9
2018-Aug-13 17:30N 46°11' W 124°18'510.1
2018-Aug-13 17:00N 46°16' W 124°17'510.4
2018-Aug-13 16:31N 46°21' W 124°17'510.5
2018-Aug-13 16:00N 46°26' W 124°17'510.3
2018-Aug-13 15:30N 46°31' W 124°18'510.0
2018-Aug-13 15:00N 46°36' W 124°18'510.1
2018-Aug-13 14:30N 46°41' W 124°16'510.0
2018-Aug-13 14:00N 46°46' W 124°15'5 9.8
2018-Aug-13 13:30N 46°51' W 124°13'6 0.4
2018-Aug-13 00:00N 46°55' W 124°06'3 5.5
2018-Aug-12 23:31N 46°55' W 124°10'4 8.7
2018-Aug-12 23:00N 46°58' W 124°15'5 9.7
2018-Aug-12 22:30N 47°02' W 124°19'5 9.5
2018-Aug-12 22:00N 47°06' W 124°22'5 9.1
2018-Aug-12 21:30N 47°11' W 124°24'63 9.7
2018-Aug-12 15:02N 48°11' W 124°49'0 9.7
2018-Aug-12 15:00N 48°12' W 124°49'5 9.8
2018-Aug-12 14:30N 48°17' W 124°48'6 9.9
2018-Aug-12 13:54N 48°22' W 124°47'3 7.9
2018-Aug-12 13:29N 48°25' W 124°43'511.6
2018-Aug-12 13:01N 48°23' W 124°35'1 3.0
2018-Aug-12 12:30N 48°22' W 124°37'0 0.0
2018-Aug-12 12:00N 48°22' W 124°37'0 0.0
2018-Aug-12 11:30N 48°22' W 124°37'0 0.0
2018-Aug-12 11:00N 48°22' W 124°37'0 0.0
2018-Aug-12 10:30N 48°22' W 124°37'0 0.0
2018-Aug-12 10:00N 48°22' W 124°37'0 0.0
2018-Aug-12 09:30N 48°22' W 124°37'0 0.0
2018-Aug-12 09:00N 48°22' W 124°37'0 0.0
2018-Aug-12 08:30N 48°22' W 124°37'0 0.0
2018-Aug-12 08:00N 48°22' W 124°37'0 0.0
2018-Aug-12 07:30N 48°22' W 124°37'0 0.0
2018-Aug-12 07:00N 48°22' W 124°37'0 0.0
2018-Aug-12 06:30N 48°22' W 124°37'0 0.0
2018-Aug-12 06:00N 48°22' W 124°37'0 0.0
2018-Aug-12 05:30N 48°22' W 124°37'0 0.0
2018-Aug-12 05:00N 48°22' W 124°37'0 0.0
2018-Aug-12 04:30N 48°22' W 124°37'0 0.0
2018-Aug-12 04:00N 48°22' W 124°37'0 0.0
2018-Aug-12 03:30N 48°22' W 124°37'0 0.0
2018-Aug-12 03:00N 48°22' W 124°37'0 0.0
2018-Aug-12 02:30N 48°22' W 124°37'0 0.0
2018-Aug-12 02:00N 48°22' W 124°37'0 0.0
2018-Aug-12 01:30N 48°22' W 124°37'0 0.0
2018-Aug-12 01:00N 48°22' W 124°37'0 0.0
2018-Aug-12 00:30N 48°22' W 124°37'0 0.0
2018-Aug-12 00:00N 48°22' W 124°37'0 0.0
2018-Aug-11 23:30N 48°22' W 124°37'0 0.1
2018-Aug-11 23:00N 48°22' W 124°37'3 6.1
2018-Aug-11 22:30N 48°22' W 124°32'4 8.7
2018-Aug-11 22:00N 48°21' W 124°26'4 8.4
2018-Aug-11 21:30N 48°19' W 124°20'4 8.3
2018-Aug-11 20:59N 48°18' W 124°14'6 8.4
2018-Aug-11 20:17N 48°16' W 124°06'45 7.0
2018-Aug-11 13:49N 48°25' W 122°59'411.6
2018-Aug-11 13:30N 48°28' W 122°57'611.2
2018-Aug-11 13:01N 48°33' W 122°59'0 0.9
2018-Aug-11 12:30N 48°34' W 122°59'0 0.0
2018-Aug-11 12:01N 48°34' W 122°59'0 0.0
2018-Aug-11 11:31N 48°34' W 122°59'0 0.0
2018-Aug-11 11:00N 48°34' W 122°59'0 0.0
2018-Aug-11 10:30N 48°34' W 122°59'0 0.0
2018-Aug-11 10:00N 48°34' W 122°59'0 0.0
2018-Aug-11 09:30N 48°34' W 122°59'0 0.0
2018-Aug-11 09:00N 48°34' W 122°59'0 0.0
2018-Aug-11 08:30N 48°34' W 122°59'0 0.0
2018-Aug-11 08:00N 48°34' W 122°59'0 0.0
2018-Aug-11 07:30N 48°34' W 122°59'0 0.0
2018-Aug-11 07:00N 48°34' W 122°59'0 0.0
2018-Aug-11 06:30N 48°34' W 122°59'0 0.0
2018-Aug-11 06:00N 48°34' W 122°59'0 0.0
2018-Aug-11 05:31N 48°34' W 122°59'0 0.0
2018-Aug-11 05:01N 48°34' W 122°59'0 0.0
2018-Aug-11 04:30N 48°34' W 122°59'0 0.1
2018-Aug-11 04:01N 48°34' W 122°59'0 0.0
2018-Aug-11 03:30N 48°34' W 122°59'0 0.0
2018-Aug-11 03:00N 48°34' W 122°59'2 3.2
2018-Aug-11 02:30N 48°33' W 123°01'0 0.3
2018-Aug-11 02:00N 48°33' W 123°01'0 0.0
2018-Aug-11 01:30N 48°33' W 123°01'0 0.0
2018-Aug-11 01:00N 48°33' W 123°01'0 0.1
2018-Aug-11 00:31N 48°33' W 123°01'0 0.0
2018-Aug-11 00:00N 48°33' W 123°01'0 0.1
2018-Aug-10 23:30N 48°33' W 123°01'0 0.1
2018-Aug-10 23:01N 48°33' W 123°01'0 0.0
2018-Aug-10 22:31N 48°33' W 123°01'0 0.0
2018-Aug-10 22:00N 48°33' W 123°01'0 0.0
2018-Aug-10 21:30N 48°33' W 123°01'0 0.0
2018-Aug-10 21:01N 48°33' W 123°01'0 0.1
2018-Aug-10 20:31N 48°33' W 123°01'0 0.2
2018-Aug-10 20:01N 48°33' W 123°01'0 0.4
2018-Aug-10 19:30N 48°32' W 123°01'2 3.9
2018-Aug-10 19:00N 48°34' W 123°01'5 9.9
2018-Aug-10 18:30N 48°38' W 123°07'4 7.9
2018-Aug-10 18:00N 48°38' W 123°13'510.7
2018-Aug-10 17:31N 48°39' W 123°21'2 3.9
2018-Aug-10 17:00N 48°39' W 123°24'0 0.1
2018-Aug-10 16:31N 48°39' W 123°24'0 0.1
2018-Aug-10 16:00N 48°39' W 123°24'0 0.1
2018-Aug-10 15:30N 48°39' W 123°24'0 0.1
2018-Aug-10 15:00N 48°39' W 123°24'0 0.0
2018-Aug-10 14:30N 48°39' W 123°24'0 0.0
2018-Aug-10 14:00N 48°39' W 123°24'0 0.0
2018-Aug-10 13:30N 48°39' W 123°24'0 0.0
2018-Aug-10 13:00N 48°39' W 123°24'0 0.0
2018-Aug-10 12:30N 48°39' W 123°24'0 0.0
2018-Aug-10 12:00N 48°39' W 123°24'0 0.0
2018-Aug-10 11:30N 48°39' W 123°24'0 0.0
2018-Aug-10 11:00N 48°39' W 123°24'0 0.0
2018-Aug-10 10:30N 48°39' W 123°24'0 0.1
2018-Aug-10 10:00N 48°39' W 123°24'0 0.1
2018-Aug-10 09:29N 48°39' W 123°24'0 0.0
2018-Aug-10 08:57N 48°39' W 123°24'0 0.0
2018-Aug-10 08:29N 48°39' W 123°24'0 0.0
2018-Aug-10 07:59N 48°39' W 123°24'0 0.1
2018-Aug-10 07:31N 48°39' W 123°24'0 0.1
2018-Aug-10 07:01N 48°39' W 123°24'0 0.0
2018-Aug-10 06:30N 48°39' W 123°24'0 0.0
2018-Aug-10 06:00N 48°39' W 123°24'0 0.0
2018-Aug-10 05:30N 48°39' W 123°24'0 0.0
2018-Aug-10 05:00N 48°39' W 123°24'0 0.0
2018-Aug-10 04:31N 48°39' W 123°24'0 0.0
2018-Aug-10 04:01N 48°39' W 123°24'0 0.1
2018-Aug-10 03:31N 48°39' W 123°24'0 0.1
2018-Aug-10 03:00N 48°39' W 123°24'0 0.0
2018-Aug-10 02:30N 48°39' W 123°24'0 0.0
2018-Aug-10 02:00N 48°39' W 123°24'0 0.0
2018-Aug-10 01:30N 48°39' W 123°24'0 0.0
2018-Aug-10 01:00N 48°39' W 123°24'0 0.0
2018-Aug-10 00:30N 48°39' W 123°24'0 0.0
2018-Aug-10 00:01N 48°39' W 123°24'0 0.0
2018-Aug-09 23:30N 48°39' W 123°24'0 0.1
2018-Aug-09 23:00N 48°39' W 123°24'0 0.1
2018-Aug-09 22:31N 48°39' W 123°24'0 0.0
2018-Aug-09 22:01N 48°39' W 123°24'0 0.1
2018-Aug-09 21:31N 48°39' W 123°24'0 0.1
2018-Aug-09 21:00N 48°39' W 123°24'0 0.0
2018-Aug-09 20:31N 48°39' W 123°24'0 0.0
2018-Aug-09 20:00N 48°39' W 123°24'0 0.1
2018-Aug-09 19:30N 48°39' W 123°24'0 0.1
2018-Aug-09 19:00N 48°39' W 123°24'0 0.0
2018-Aug-09 18:30N 48°39' W 123°24'0 0.0
2018-Aug-09 18:00N 48°39' W 123°24'0 0.0
2018-Aug-09 17:30N 48°39' W 123°24'0 0.0
2018-Aug-09 17:00N 48°39' W 123°24'0 0.1
2018-Aug-09 16:30N 48°39' W 123°24'0 0.1
2018-Aug-09 16:00N 48°39' W 123°24'0 0.1
2018-Aug-09 15:30N 48°39' W 123°24'0 0.1
2018-Aug-09 15:00N 48°39' W 123°24'0 0.0
2018-Aug-09 14:30N 48°39' W 123°24'0 0.0
2018-Aug-09 13:27N 48°39' W 123°24'0 0.0
2018-Aug-09 13:00N 48°39' W 123°24'0 0.0
2018-Aug-09 12:01N 48°39' W 123°24'0 0.0
2018-Aug-09 12:00N 48°39' W 123°24'0 0.0
2018-Aug-09 11:30N 48°39' W 123°24'0 0.0
2018-Aug-09 11:00N 48°39' W 123°24'0 0.0
2018-Aug-09 10:30N 48°39' W 123°24'0 0.0
2018-Aug-09 10:00N 48°39' W 123°24'0 0.0
2018-Aug-09 09:27N 48°39' W 123°24'0 0.0
2018-Aug-09 09:00N 48°39' W 123°24'0 0.0
2018-Aug-09 08:30N 48°39' W 123°24'0 0.0
2018-Aug-09 08:00N 48°39' W 123°24'0 0.0
2018-Aug-09 07:30N 48°39' W 123°24'0 0.0
2018-Aug-09 07:01N 48°39' W 123°24'0 0.0
2018-Aug-09 06:31N 48°39' W 123°24'0 0.0
2018-Aug-09 06:00N 48°39' W 123°24'0 0.0
2018-Aug-09 05:30N 48°39' W 123°24'0 0.0
2018-Aug-09 05:00N 48°39' W 123°24'0 0.0
2018-Aug-09 04:30N 48°39' W 123°24'0 0.0
2018-Aug-09 04:00N 48°39' W 123°24'0 0.0
2018-Aug-09 03:31N 48°39' W 123°24'0 0.0
2018-Aug-09 03:01N 48°39' W 123°24'0 0.0
2018-Aug-09 02:30N 48°39' W 123°24'0 0.0
2018-Aug-09 02:00N 48°39' W 123°24'0 0.0
2018-Aug-09 01:30N 48°39' W 123°24'0 0.0
2018-Aug-09 01:00N 48°39' W 123°24'0 0.0
2018-Aug-09 00:30N 48°39' W 123°24'0 0.0
2018-Aug-09 00:00N 48°39' W 123°24'0 0.0
2018-Aug-08 23:30N 48°39' W 123°24'0 0.1
2018-Aug-08 23:01N 48°39' W 123°24'0 0.1
2018-Aug-08 22:30N 48°39' W 123°24'0 0.0
2018-Aug-08 22:00N 48°39' W 123°24'0 0.0
2018-Aug-08 21:30N 48°39' W 123°24'0 0.0
2018-Aug-08 21:00N 48°39' W 123°24'0 0.0
2018-Aug-08 20:30N 48°39' W 123°24'0 0.0
2018-Aug-08 20:00N 48°39' W 123°24'0 0.0
2018-Aug-08 19:30N 48°39' W 123°24'0 0.0
2018-Aug-08 19:00N 48°39' W 123°24'0 0.0
2018-Aug-08 18:30N 48°39' W 123°24'0 0.0
2018-Aug-08 18:00N 48°39' W 123°24'0 0.0
2018-Aug-08 17:30N 48°39' W 123°24'0 0.0
2018-Aug-08 17:00N 48°39' W 123°24'0 0.1
2018-Aug-08 16:30N 48°39' W 123°24'0 0.1
2018-Aug-08 16:00N 48°39' W 123°24'0 0.0
2018-Aug-08 15:30N 48°39' W 123°24'0 0.1
2018-Aug-08 15:00N 48°39' W 123°24'0 0.1
2018-Aug-08 14:30N 48°39' W 123°24'0 0.0
2018-Aug-08 14:00N 48°39' W 123°24'0 0.0
2018-Aug-08 13:30N 48°39' W 123°24'0 0.0
2018-Aug-08 13:00N 48°39' W 123°24'0 0.0
2018-Aug-08 12:30N 48°39' W 123°24'0 0.0
2018-Aug-08 12:00N 48°39' W 123°24'0 0.0
2018-Aug-08 11:30N 48°39' W 123°24'0 0.0
2018-Aug-08 11:00N 48°39' W 123°24'0 0.1
2018-Aug-08 10:30N 48°39' W 123°24'0 0.1
2018-Aug-08 10:00N 48°39' W 123°24'0 0.0
2018-Aug-08 09:30N 48°39' W 123°24'0 0.0
2018-Aug-08 09:00N 48°39' W 123°24'0 0.0
2018-Aug-08 08:30N 48°39' W 123°24'0 0.0
2018-Aug-08 08:00N 48°39' W 123°24'0 0.0
2018-Aug-08 07:30N 48°39' W 123°24'0 0.0
2018-Aug-08 07:00N 48°39' W 123°24'0 0.0
2018-Aug-08 06:30N 48°39' W 123°24'0 0.0
2018-Aug-08 06:00N 48°39' W 123°24'0 0.0
2018-Aug-08 05:30N 48°39' W 123°24'0 0.0
2018-Aug-08 05:00N 48°39' W 123°24'0 0.0
2018-Aug-08 04:30N 48°39' W 123°24'0 0.0
2018-Aug-08 04:00N 48°39' W 123°24'0 0.0
2018-Aug-08 03:30N 48°39' W 123°24'0 0.0
2018-Aug-08 03:00N 48°39' W 123°24'0 0.0
2018-Aug-08 02:30N 48°39' W 123°24'0 0.0
2018-Aug-08 02:00N 48°39' W 123°24'0 0.0
2018-Aug-08 01:31N 48°39' W 123°24'0 0.0
2018-Aug-08 01:01N 48°39' W 123°24'0 0.0
2018-Aug-08 00:31N 48°39' W 123°24'0 0.0
2018-Aug-08 00:00N 48°39' W 123°24'0 0.0
2018-Aug-07 23:31N 48°39' W 123°24'0 0.0
2018-Aug-07 23:00N 48°39' W 123°24'0 0.0
2018-Aug-07 22:31N 48°39' W 123°24'0 0.0
2018-Aug-07 22:00N 48°39' W 123°24'0 0.0
2018-Aug-07 21:30N 48°39' W 123°24'0 0.0
2018-Aug-07 21:00N 48°39' W 123°24'0 0.0
2018-Aug-07 20:31N 48°39' W 123°24'0 0.0
2018-Aug-07 20:00N 48°39' W 123°24'0 0.0
2018-Aug-07 19:30N 48°39' W 123°24'0 0.0
2018-Aug-07 19:00N 48°39' W 123°24'0 0.0
2018-Aug-07 18:31N 48°39' W 123°24'0 0.0
2018-Aug-07 18:01N 48°39' W 123°24'0 0.0
2018-Aug-07 17:31N 48°39' W 123°24'0 0.0
2018-Aug-07 17:00N 48°39' W 123°24'0 0.0
2018-Aug-07 16:31N 48°39' W 123°24'0 0.0
2018-Aug-07 16:01N 48°39' W 123°24'0 0.0
2018-Aug-07 15:30N 48°39' W 123°24'0 0.0
2018-Aug-07 15:00N 48°39' W 123°24'0 0.1
2018-Aug-07 14:31N 48°39' W 123°24'0 0.0
2018-Aug-07 14:00N 48°39' W 123°24'0 0.0
2018-Aug-07 13:31N 48°39' W 123°24'0 0.0
2018-Aug-07 13:00N 48°39' W 123°24'0 0.0
2018-Aug-07 12:30N 48°39' W 123°24'0 0.0
2018-Aug-07 12:01N 48°39' W 123°24'0 0.0
2018-Aug-07 11:31N 48°39' W 123°24'0 0.0
2018-Aug-07 11:01N 48°39' W 123°24'0 0.0
2018-Aug-07 10:30N 48°39' W 123°24'0 0.0
2018-Aug-07 10:00N 48°39' W 123°24'0 0.0
2018-Aug-07 09:31N 48°39' W 123°24'0 0.0
2018-Aug-07 09:00N 48°39' W 123°24'0 0.0
2018-Aug-07 08:30N 48°39' W 123°24'0 0.0
2018-Aug-07 08:00N 48°39' W 123°24'0 0.0
2018-Aug-07 07:30N 48°39' W 123°24'0 0.0
2018-Aug-07 07:01N 48°39' W 123°24'0 0.0
2018-Aug-07 06:30N 48°39' W 123°24'0 0.0
2018-Aug-07 06:01N 48°39' W 123°24'0 0.0
2018-Aug-07 05:31N 48°39' W 123°24'0 0.0
2018-Aug-07 05:00N 48°39' W 123°24'0 0.0
2018-Aug-07 04:31N 48°39' W 123°24'0 0.0
2018-Aug-07 04:01N 48°39' W 123°24'0 0.0
2018-Aug-07 03:30N 48°39' W 123°24'0 0.0
2018-Aug-07 03:01N 48°39' W 123°24'0 0.0
2018-Aug-07 02:31N 48°39' W 123°24'0 0.0
2018-Aug-07 02:01N 48°39' W 123°24'0 0.0
2018-Aug-07 01:30N 48°39' W 123°24'0 0.0
2018-Aug-07 01:01N 48°39' W 123°24'0 0.0
2018-Aug-07 00:30N 48°39' W 123°24'0 0.0
2018-Aug-07 00:01N 48°39' W 123°24'0 0.0
2018-Aug-06 23:31N 48°39' W 123°24'0 0.0
2018-Aug-06 23:00N 48°39' W 123°24'0 0.0
2018-Aug-06 22:31N 48°39' W 123°24'0 0.0
2018-Aug-06 22:00N 48°39' W 123°24'0 0.0
2018-Aug-06 21:30N 48°39' W 123°24'0 0.0
2018-Aug-06 20:59N 48°39' W 123°24'0 0.0
2018-Aug-06 20:30N 48°39' W 123°24'0 0.0
2018-Aug-06 20:00N 48°39' W 123°24'0 0.0
2018-Aug-06 19:29N 48°39' W 123°24'0 0.0
2018-Aug-06 19:00N 48°39' W 123°24'0 0.0
2018-Aug-06 18:30N 48°39' W 123°24'0 0.0
2018-Aug-06 17:59N 48°39' W 123°24'0 0.0
2018-Aug-06 17:29N 48°39' W 123°24'0 0.0
2018-Aug-06 17:00N 48°39' W 123°24'0 0.0
2018-Aug-06 16:31N 48°39' W 123°24'0 0.0
2018-Aug-06 16:00N 48°39' W 123°24'0 0.0
2018-Aug-06 15:30N 48°39' W 123°24'0 0.0
2018-Aug-06 15:01N 48°39' W 123°24'0 0.0
2018-Aug-06 14:30N 48°39' W 123°24'0 0.0
2018-Aug-06 14:00N 48°39' W 123°24'0 0.0
2018-Aug-06 13:31N 48°39' W 123°24'0 0.0
2018-Aug-06 13:00N 48°39' W 123°24'0 0.0
2018-Aug-06 12:30N 48°39' W 123°24'0 0.0
2018-Aug-06 12:01N 48°39' W 123°24'0 0.0
2018-Aug-06 11:31N 48°39' W 123°24'0 0.0
2018-Aug-06 11:01N 48°39' W 123°24'0 0.0
2018-Aug-06 10:30N 48°39' W 123°24'0 0.0
2018-Aug-06 10:00N 48°39' W 123°24'0 0.0
2018-Aug-06 09:30N 48°39' W 123°24'0 0.0
2018-Aug-06 09:00N 48°39' W 123°24'0 0.0
2018-Aug-06 08:30N 48°39' W 123°24'0 0.0
2018-Aug-06 08:01N 48°39' W 123°24'0 0.0
2018-Aug-06 07:30N 48°39' W 123°24'0 0.0
2018-Aug-06 07:01N 48°39' W 123°24'0 0.0
2018-Aug-06 06:30N 48°39' W 123°24'0 0.0
2018-Aug-06 06:00N 48°39' W 123°24'0 0.0
2018-Aug-06 05:30N 48°39' W 123°24'0 0.0
2018-Aug-06 05:00N 48°39' W 123°24'0 0.0
2018-Aug-06 04:30N 48°39' W 123°24'0 0.0
2018-Aug-06 04:00N 48°39' W 123°24'0 0.0
2018-Aug-06 03:30N 48°39' W 123°24'0 0.0
2018-Aug-06 03:00N 48°39' W 123°24'0 0.0
2018-Aug-06 02:31N 48°39' W 123°24'0 0.0
2018-Aug-06 02:01N 48°39' W 123°24'0 0.0
2018-Aug-06 01:31N 48°39' W 123°24'0 0.0
2018-Aug-06 01:01N 48°39' W 123°24'0 0.0
2018-Aug-06 00:30N 48°39' W 123°24'0 0.0
2018-Aug-06 00:01N 48°39' W 123°24'0 0.0
2018-Aug-05 23:31N 48°39' W 123°24'0 0.0
2018-Aug-05 23:01N 48°39' W 123°24'0 0.0
2018-Aug-05 22:30N 48°39' W 123°24'0 0.0
2018-Aug-05 22:00N 48°39' W 123°24'0 0.0
2018-Aug-05 21:30N 48°39' W 123°24'0 0.0
2018-Aug-05 21:00N 48°39' W 123°24'0 0.0
2018-Aug-05 20:30N 48°39' W 123°24'0 0.0
2018-Aug-05 20:00N 48°39' W 123°24'0 0.0
2018-Aug-05 19:31N 48°39' W 123°24'0 0.0
2018-Aug-05 19:00N 48°39' W 123°24'0 0.0
2018-Aug-05 18:30N 48°39' W 123°24'0 0.0
2018-Aug-05 18:01N 48°39' W 123°24'0 0.0
2018-Aug-05 17:30N 48°39' W 123°24'0 0.0
2018-Aug-05 17:00N 48°39' W 123°24'0 0.0
2018-Aug-05 16:30N 48°39' W 123°24'0 0.0
2018-Aug-05 16:00N 48°39' W 123°24'0 0.0
2018-Aug-05 15:30N 48°39' W 123°24'0 0.0
2018-Aug-05 15:01N 48°39' W 123°24'0 0.0
2018-Aug-05 14:30N 48°39' W 123°24'0 0.0
2018-Aug-05 13:31N 48°39' W 123°24'0 0.0
2018-Aug-05 13:00N 48°39' W 123°24'0 0.0
2018-Aug-05 12:30N 48°39' W 123°24'0 0.0
2018-Aug-05 12:00N 48°39' W 123°24'0 0.0
2018-Aug-05 11:31N 48°39' W 123°24'0 0.0
2018-Aug-05 11:01N 48°39' W 123°24'0 0.0
2018-Aug-05 10:31N 48°39' W 123°24'0 0.0
2018-Aug-05 10:01N 48°39' W 123°24'0 0.0
2018-Aug-05 09:30N 48°39' W 123°24'0 0.0
2018-Aug-05 09:00N 48°39' W 123°24'0 0.0
2018-Aug-05 08:30N 48°39' W 123°24'0 0.0
2018-Aug-05 08:00N 48°39' W 123°24'0 0.0
2018-Aug-05 07:30N 48°39' W 123°24'0 0.0
2018-Aug-05 07:00N 48°39' W 123°24'0 0.0
2018-Aug-05 06:31N 48°39' W 123°24'0 0.0
2018-Aug-05 06:01N 48°39' W 123°24'0 0.0
2018-Aug-05 05:30N 48°39' W 123°24'0 0.0
2018-Aug-05 05:01N 48°39' W 123°24'0 0.0
2018-Aug-05 04:31N 48°39' W 123°24'0 0.0
2018-Aug-05 04:01N 48°39' W 123°24'0 0.0
2018-Aug-05 03:30N 48°39' W 123°24'0 0.0
2018-Aug-05 03:01N 48°39' W 123°24'0 0.0
2018-Aug-05 02:31N 48°39' W 123°24'0 0.0
2018-Aug-05 02:00N 48°39' W 123°24'0 0.0
2018-Aug-05 01:30N 48°39' W 123°24'0 0.0
2018-Aug-05 01:01N 48°39' W 123°24'0 0.0
2018-Aug-05 00:31N 48°39' W 123°24'0 0.0
2018-Aug-05 00:00N 48°39' W 123°24'0 0.0
2018-Aug-04 23:30N 48°39' W 123°24'0 0.0
2018-Aug-04 23:01N 48°39' W 123°24'0 0.0
2018-Aug-04 22:31N 48°39' W 123°24'0 0.0
2018-Aug-04 22:00N 48°39' W 123°24'0 0.0
2018-Aug-04 21:30N 48°39' W 123°24'0 0.0
2018-Aug-04 21:00N 48°39' W 123°24'0 0.0
2018-Aug-04 20:30N 48°39' W 123°24'0 0.0
2018-Aug-04 20:00N 48°39' W 123°24'0 0.0
2018-Aug-04 19:30N 48°39' W 123°24'0 0.0
2018-Aug-04 19:00N 48°39' W 123°24'0 0.0
2018-Aug-04 18:30N 48°39' W 123°24'0 0.0
2018-Aug-04 18:00N 48°39' W 123°24'0 0.0
2018-Aug-04 17:30N 48°39' W 123°24'0 0.0
2018-Aug-04 17:00N 48°39' W 123°24'0 0.0
2018-Aug-04 16:30N 48°39' W 123°24'0 0.0
2018-Aug-04 16:00N 48°39' W 123°24'0 0.0
2018-Aug-04 15:30N 48°39' W 123°24'0 0.0
2018-Aug-04 15:00N 48°39' W 123°24'0 0.0
2018-Aug-04 14:30N 48°39' W 123°24'0 0.0
2018-Aug-04 14:00N 48°39' W 123°24'0 0.0
2018-Aug-04 13:30N 48°39' W 123°24'0 0.0
2018-Aug-04 13:00N 48°39' W 123°24'0 0.0
2018-Aug-04 12:31N 48°39' W 123°24'0 0.0
2018-Aug-04 12:00N 48°39' W 123°24'0 0.0
2018-Aug-04 11:30N 48°39' W 123°24'0 0.0
2018-Aug-04 11:00N 48°39' W 123°24'0 0.0
2018-Aug-04 10:30N 48°39' W 123°24'0 0.0
2018-Aug-04 10:01N 48°39' W 123°24'0 0.0
2018-Aug-04 09:30N 48°39' W 123°24'0 0.0
2018-Aug-04 09:01N 48°39' W 123°24'0 0.0
2018-Aug-04 08:30N 48°39' W 123°24'0 0.0
2018-Aug-04 08:00N 48°39' W 123°24'0 0.0
2018-Aug-04 07:31N 48°39' W 123°24'0 0.0
2018-Aug-04 07:00N 48°39' W 123°24'0 0.0
2018-Aug-04 06:30N 48°39' W 123°24'0 0.0
2018-Aug-04 06:01N 48°39' W 123°24'0 0.0
2018-Aug-04 05:30N 48°39' W 123°24'0 0.0
2018-Aug-04 05:01N 48°39' W 123°24'0 0.0
2018-Aug-04 04:31N 48°39' W 123°24'0 0.0
2018-Aug-04 04:00N 48°39' W 123°24'0 0.0
2018-Aug-04 03:30N 48°39' W 123°24'0 0.0
2018-Aug-04 03:00N 48°39' W 123°24'0 0.0
2018-Aug-04 02:31N 48°39' W 123°24'0 0.0
2018-Aug-04 02:00N 48°39' W 123°24'0 0.0
2018-Aug-04 01:30N 48°39' W 123°24'0 0.0
2018-Aug-04 01:00N 48°39' W 123°24'0 0.0
2018-Aug-04 00:31N 48°39' W 123°24'0 0.0
2018-Aug-04 00:00N 48°39' W 123°24'0 0.0
2018-Aug-03 23:31N 48°39' W 123°24'  

Dump ship's entire track history